New River MCAS, H, Mccutcheon Fld, Airport Jacksonville US
ICAO: KNCA
IATA: NCA
Category: Medium
Scheduled Services: No

Elevation: 26 ft
TransAlt. 18000 ft.

Airport Communications:
CHERRY POINT APP/DEP:119.35
ARRIVAL:124.85
ATIS:28.832
CLNC DEL:23.902
GND:121.8
OPS:23.64
PMSV METRO:24.477
TWR:120

KNCA Zoom In..

If you have problems with the map follow the link
https://www.worldairports.se/pages/airport.php?
ICAO=KNCA

Runways:

(A) RW 01 length 4790 ft width 150 ft
ILS 111.10 / hdg 8

(B) RW 05 length 5114 ft width 150 ft
---- / hdg 53

(C) RW 19 length 4790 ft width 150 ft
---- / hdg 188

(D) RW 23 length 5114 ft width 150 ft
---- / hdg 233

Location; KNCA
Day. 06 / Time. 03.56 Zulu
* Altimeter: 30.23
* Temperature: 01° c. 33.8°f.
* Wind from: 000° Speed 00 kn.
Dewpoint: -01° c.
Visibility: 10 Statute Miles.
Clouds: Clear (automated report).

KNCA 060356Z AUTO 00000KT 10SM CLR 01/M01 A3023 RMK AO2 SLP238 T00111011


Wind - Calm.

 
 
jpsmedia worldairports.se 2019   terms of use